createdAt,value
2023-03-06T00:02:25.180Z,4.99
2023-03-06T00:07:27.414Z,5.39
2023-03-06T00:12:29.662Z,5.19
2023-03-06T00:17:31.867Z,5.56
2023-03-06T00:22:34.161Z,5.11
2023-03-06T00:27:36.512Z,5.16
2023-03-06T00:32:38.754Z,5.05
2023-03-06T00:37:41.766Z,4.82
2023-03-06T00:42:44.274Z,4.53
2023-03-06T00:47:46.742Z,4.55
2023-03-06T00:52:50.211Z,4.95
2023-03-06T00:57:52.338Z,5.01
2023-03-06T01:02:56.094Z,4.80
2023-03-06T01:07:58.331Z,4.94
2023-03-06T01:13:02.097Z,4.78
2023-03-06T01:18:04.295Z,4.50
2023-03-06T01:23:06.519Z,4.42
2023-03-06T01:28:08.655Z,4.84
2023-03-06T01:33:11.502Z,4.56
2023-03-06T01:38:14.055Z,4.77
2023-03-06T01:43:29.223Z,4.47
2023-03-06T01:48:31.741Z,4.81
2023-03-06T01:53:33.957Z,4.29
2023-03-06T01:58:36.609Z,4.53
2023-03-06T02:03:40.424Z,4.28
2023-03-06T02:08:42.687Z,5.09
2023-03-06T02:13:46.648Z,4.89
2023-03-06T02:18:50.194Z,4.70
2023-03-06T02:24:33.214Z,5.07
2023-03-06T02:29:35.799Z,5.37
2023-03-06T02:34:38.922Z,5.58
2023-03-06T02:39:48.553Z,5.45
2023-03-06T02:44:53.239Z,5.14
2023-03-06T02:49:55.667Z,5.28
2023-03-06T02:54:58.190Z,5.21
2023-03-06T03:00:00.449Z,5.10
2023-03-06T03:05:03.129Z,4.70
2023-03-06T03:10:06.714Z,4.92
2023-03-06T03:15:10.809Z,5.19
2023-03-06T03:20:17.802Z,5.30
2023-03-06T03:25:21.884Z,4.80
2023-03-06T03:30:24.120Z,4.48
2023-03-06T03:35:26.660Z,4.60
2023-03-06T03:40:29.113Z,4.83
2023-03-06T03:45:34.364Z,4.34
2023-03-06T03:50:37.116Z,5.04
2023-03-06T03:55:39.963Z,4.78
2023-03-06T04:00:42.396Z,4.49
2023-03-06T04:05:49.331Z,4.35
2023-03-06T04:10:53.778Z,5.01
2023-03-06T04:15:57.024Z,5.27
2023-03-06T04:20:59.542Z,5.56
2023-03-06T04:26:02.676Z,5.47
2023-03-06T04:31:05.494Z,5.08
2023-03-06T04:36:08.230Z,5.06
2023-03-06T04:41:10.581Z,5.20
2023-03-06T04:46:12.913Z,5.39
2023-03-06T04:51:15.355Z,5.41
2023-03-06T04:56:17.691Z,4.98
2023-03-06T05:01:20.001Z,5.02
2023-03-06T05:06:22.158Z,4.71
2023-03-06T05:11:24.472Z,4.86
2023-03-06T05:16:27.036Z,4.69
2023-03-06T05:21:29.315Z,5.16
2023-03-06T05:26:31.670Z,4.63
2023-03-06T05:31:33.866Z,4.56
2023-03-06T05:36:36.430Z,4.76
2023-03-06T05:41:38.730Z,4.59
2023-03-06T05:46:41.140Z,4.76
2023-03-06T05:51:43.490Z,5.05
2023-03-06T05:56:45.740Z,4.39
2023-03-06T06:01:47.983Z,4.45
2023-03-06T06:06:59.781Z,4.30
2023-03-06T06:12:03.915Z,4.22
2023-03-06T06:17:06.467Z,4.33
2023-03-06T06:22:08.957Z,4.24
2023-03-06T06:27:11.265Z,4.62
2023-03-06T06:32:13.464Z,4.31
2023-03-06T06:37:16.310Z,4.34
2023-03-06T06:42:32.970Z,4.42
2023-03-06T06:47:41.527Z,4.29
2023-03-06T06:52:44.005Z,4.69
2023-03-06T06:57:46.293Z,4.49
2023-03-06T07:02:51.407Z,4.49
2023-03-06T07:07:53.747Z,4.69
2023-03-06T07:12:56.559Z,5.03
2023-03-06T07:17:58.843Z,5.10
2023-03-06T07:23:01.110Z,5.36
2023-03-06T07:28:03.318Z,4.91
2023-03-06T07:33:05.531Z,5.34
2023-03-06T07:38:07.800Z,5.22
2023-03-06T07:43:19.106Z,5.37
2023-03-06T07:48:30.918Z,5.29
2023-03-06T07:53:34.059Z,4.95
2023-03-06T07:58:38.182Z,5.36
2023-03-06T08:03:40.525Z,5.46
2023-03-06T08:08:45.295Z,5.36
2023-03-06T08:13:48.835Z,5.47
2023-03-06T08:18:51.490Z,5.46
2023-03-06T08:23:54.225Z,5.69
2023-03-06T08:28:59.688Z,5.62
2023-03-06T08:34:06.936Z,5.89
2023-03-06T08:39:09.874Z,5.70
2023-03-06T08:44:12.841Z,5.98
2023-03-06T08:49:15.229Z,6.17
2023-03-06T08:54:17.538Z,6.16
2023-03-06T08:59:19.800Z,6.37
2023-03-06T09:04:22.075Z,7.01
2023-03-06T09:09:24.247Z,7.19
2023-03-06T09:14:26.659Z,6.87
2023-03-06T09:19:28.976Z,6.94
2023-03-06T09:24:31.345Z,7.29
2023-03-06T09:29:33.630Z,7.34
2023-03-06T09:34:36.651Z,7.27
2023-03-06T09:39:38.982Z,7.16
2023-03-06T09:44:42.996Z,7.13
2023-03-06T09:49:51.674Z,7.38
2023-03-06T09:55:11.752Z,6.59
2023-03-06T10:00:19.417Z,7.03
2023-03-06T10:05:27.759Z,7.03
2023-03-06T10:10:47.296Z,6.85
2023-03-06T10:15:50.632Z,6.62
2023-03-06T10:21:04.705Z,6.86
2023-03-06T10:26:25.881Z,6.77
2023-03-06T10:31:29.270Z,6.53
2023-03-06T10:36:31.653Z,7.03
2023-03-06T10:41:36.720Z,7.18
2023-03-06T10:46:48.930Z,7.67
2023-03-06T10:52:09.977Z,7.37
2023-03-06T10:57:28.750Z,7.49
2023-03-06T11:02:38.699Z,8.11
2023-03-06T11:08:01.451Z,7.44
2023-03-06T11:13:23.775Z,7.60
2023-03-06T11:18:42.977Z,7.88
2023-03-06T11:23:50.095Z,7.93
2023-03-06T11:30:01.783Z,7.77
2023-03-06T11:35:20.402Z,8.03
2023-03-06T11:40:43.229Z,8.63
2023-03-06T11:46:27.770Z,8.35
2023-03-06T11:51:41.968Z,9.12
2023-03-06T11:57:05.247Z,9.11
2023-03-06T12:02:39.747Z,8.15
2023-03-06T12:07:57.034Z,8.56
2023-03-06T12:18:48.099Z,8.54
2023-03-06T12:24:37.422Z,8.86
2023-03-06T12:30:29.197Z,8.70
2023-03-06T12:36:00.592Z,9.50
2023-03-06T12:41:27.774Z,9.42
2023-03-06T12:46:30.591Z,9.03
2023-03-06T12:51:34.226Z,9.38
2023-03-06T12:56:36.700Z,8.84
2023-03-06T13:02:16.074Z,8.89
2023-03-06T13:07:42.444Z,9.14
2023-03-06T13:13:10.050Z,9.23
2023-03-06T13:18:24.410Z,8.83
2023-03-06T13:23:32.788Z,9.04
2023-03-06T13:28:49.917Z,9.22
2023-03-06T13:34:02.197Z,9.44
2023-03-06T13:39:10.136Z,8.79
2023-03-06T13:44:24.670Z,8.67
2023-03-06T13:49:28.116Z,8.76
2023-03-06T13:55:06.248Z,9.10
2023-03-06T14:00:32.068Z,8.77
2023-03-06T14:05:50.245Z,9.00
2023-03-06T14:11:07.139Z,8.89
2023-03-06T14:16:24.910Z,9.00
2023-03-06T14:21:56.042Z,8.66
2023-03-06T14:26:58.379Z,8.59
2023-03-06T14:32:02.751Z,8.92
2023-03-06T14:37:07.984Z,8.64
2023-03-06T14:42:29.204Z,8.33
2023-03-06T14:47:36.850Z,8.36
2023-03-06T14:52:39.293Z,8.56
2023-03-06T14:57:41.631Z,8.61
2023-03-06T15:02:45.611Z,8.43
2023-03-06T15:07:48.405Z,8.36
2023-03-06T15:12:50.800Z,8.48
2023-03-06T15:17:53.598Z,8.44
2023-03-06T15:22:55.853Z,8.76
2023-03-06T15:28:04.833Z,8.36
2023-03-06T15:33:24.410Z,8.12
2023-03-06T15:38:34.681Z,8.10
2023-03-06T15:43:40.878Z,8.41
2023-03-06T15:49:03.406Z,8.17
2023-03-06T15:54:12.400Z,7.88
2023-03-06T15:59:41.938Z,7.76
2023-03-06T16:04:45.145Z,8.13
2023-03-06T16:09:48.648Z,7.96
2023-03-06T16:14:50.827Z,7.86
2023-03-06T16:19:53.161Z,8.11
2023-03-06T16:24:55.339Z,7.72
2023-03-06T16:29:57.440Z,7.89
2023-03-06T16:34:59.550Z,7.76
2023-03-06T16:40:01.798Z,7.92
2023-03-06T16:45:04.443Z,7.48
2023-03-06T16:50:09.904Z,7.76
2023-03-06T16:55:12.015Z,7.69
2023-03-06T17:00:16.026Z,7.45
2023-03-06T17:05:19.130Z,7.36
2023-03-06T17:10:26.179Z,7.83
2023-03-06T17:15:28.368Z,8.10
2023-03-06T17:20:30.687Z,7.63
2023-03-06T17:25:35.147Z,7.69
2023-03-06T17:30:37.652Z,7.30
2023-03-06T17:35:39.828Z,7.60
2023-03-06T17:40:41.989Z,7.39
2023-03-06T17:45:45.538Z,7.37
2023-03-06T17:50:55.419Z,7.27
2023-03-06T17:56:00.815Z,7.54
2023-03-06T18:01:22.418Z,7.66
2023-03-06T18:06:27.651Z,7.26
2023-03-06T18:11:30.648Z,6.93
2023-03-06T18:16:34.286Z,7.23
2023-03-06T18:21:36.670Z,7.34
2023-03-06T18:26:42.351Z,6.90
2023-03-06T18:31:46.019Z,6.94
2023-03-06T18:36:53.370Z,7.02
2023-03-06T18:41:56.617Z,7.22
2023-03-06T18:46:58.786Z,7.10
2023-03-06T18:52:00.927Z,6.69
2023-03-06T18:57:03.103Z,7.06
2023-03-06T19:02:05.461Z,6.74
2023-03-06T19:07:07.759Z,6.68
2023-03-06T19:12:10.030Z,6.75
2023-03-06T19:17:12.553Z,6.70
2023-03-06T19:22:14.850Z,6.82
2023-03-06T19:27:17.103Z,6.67
2023-03-06T19:32:19.474Z,6.83
2023-03-06T19:37:21.818Z,6.58
2023-03-06T19:42:23.954Z,6.72
2023-03-06T19:47:26.183Z,6.51
2023-03-06T19:52:28.354Z,6.55
2023-03-06T19:57:30.620Z,6.65
2023-03-06T20:02:32.855Z,6.47
2023-03-06T20:07:36.124Z,6.47
2023-03-06T20:12:38.254Z,6.58
2023-03-06T20:17:40.804Z,6.34
2023-03-06T20:22:43.320Z,6.08
2023-03-06T20:27:45.441Z,6.36
2023-03-06T20:32:47.712Z,6.33
2023-03-06T20:37:49.852Z,6.09
2023-03-06T20:42:51.962Z,6.04
2023-03-06T20:47:56.194Z,6.08
2023-03-06T20:52:58.906Z,6.01
2023-03-06T20:58:01.006Z,6.03
2023-03-06T21:03:03.302Z,6.20
2023-03-06T21:08:05.798Z,6.24
2023-03-06T21:13:08.136Z,6.02
2023-03-06T21:18:11.378Z,6.02
2023-03-06T21:23:13.580Z,6.12
2023-03-06T21:28:17.994Z,5.98
2023-03-06T21:33:20.223Z,5.74
2023-03-06T21:38:22.492Z,5.87
2023-03-06T21:43:24.661Z,6.08
2023-03-06T21:48:26.773Z,5.78
2023-03-06T21:53:28.860Z,5.79
2023-03-06T21:58:31.560Z,5.87
2023-03-06T22:03:33.710Z,5.84
2023-03-06T22:08:36.005Z,5.62
2023-03-06T22:13:39.003Z,5.81
2023-03-06T22:18:45.143Z,5.52
2023-03-06T22:23:52.548Z,5.76
2023-03-06T22:28:54.842Z,5.68
2023-03-06T22:34:01.733Z,5.66
2023-03-06T22:39:04.588Z,5.53
2023-03-06T22:44:06.991Z,5.42
2023-03-06T22:49:12.018Z,5.66
2023-03-06T22:54:14.247Z,5.64
2023-03-06T22:59:16.477Z,5.75
2023-03-06T23:04:18.637Z,5.74
2023-03-06T23:09:23.207Z,5.73
2023-03-06T23:14:46.716Z,5.57
2023-03-06T23:20:10.171Z,5.39
2023-03-06T23:25:30.844Z,5.44
2023-03-06T23:30:33.077Z,5.25
2023-03-06T23:35:37.765Z,5.04
2023-03-06T23:40:40.454Z,4.88
2023-03-06T23:45:51.348Z,5.27
2023-03-06T23:50:54.266Z,4.74
2023-03-06T23:55:56.438Z,4.82
